Time;durP1;ratioP1;P1;durP2;ratioP2;P2;SDS_P1;SDS_P2;PMS_P1;PMS_P2;Temp;Humidity;BMP_temperature;BMP_pressure;BME280_temperature;BME280_humidity;BME280_pressure;Samples;Min_cycle;Max_cycle;Signal;HPM_P1;HPM_P2
2021/01/10 00:01:34;;;;;;;;;;;1.30;99.90;;;;;;5026264;28;19913;-74
2021/01/10 00:03:59;;;;;;;;;;;1.30;99.90;;;;;;5025544;28;19939;-73
2021/01/10 00:06:28;;;;;;;;;;;1.30;99.90;;;;;;4323556;28;10000757;-73
2021/01/10 00:08:53;;;;;;;;;;;1.30;99.90;;;;;;5023702;28;20507;-73
2021/01/10 00:11:21;;;;;;;;;;;1.30;99.90;;;;;;5024120;28;19920;-73
2021/01/10 00:13:47;;;;;;;;;;;1.30;99.90;;;;;;5023760;28;20397;-73
2021/01/10 00:16:12;;;;;;;;;;;1.30;99.90;;;;;;5023563;28;19917;-73
2021/01/10 00:18:38;;;;;;;;;;;1.30;99.90;;;;;;5023694;28;19916;-73
2021/01/10 00:21:03;;;;;;;;;;;1.30;99.90;;;;;;5024433;28;20062;-73
2021/01/10 00:23:30;;;;;;;;;;;1.30;99.90;;;;;;5023605;28;19909;-73
2021/01/10 00:25:58;;;;;;;;;;;1.30;99.90;;;;;;5024380;28;19948;-74
2021/01/10 00:28:25;;;;;;;;;;;1.30;99.90;;;;;;5022928;28;19923;-73
2021/01/10 00:30:51;;;;;;;;;;;1.20;99.90;;;;;;5021517;28;19925;-73
2021/01/10 00:33:17;;;;;;;;;;;1.30;99.90;;;;;;5024420;28;19975;-73
2021/01/10 00:35:44;;;;;;;;;;;1.20;99.90;;;;;;5023283;28;20487;-72
2021/01/10 00:38:10;;;;;;;;;;;1.20;99.90;;;;;;5022666;28;19980;-73
2021/01/10 00:40:36;;;;;;;;;;;1.20;99.90;;;;;;5022778;28;20354;-74
2021/01/10 00:43:04;;;;;;;;;;;1.20;99.90;;;;;;5056412;28;19964;-74
2021/01/10 00:45:30;;;;;;;;;;;1.20;99.90;;;;;;5023388;28;20019;-73
2021/01/10 00:47:56;;;;;;;;;;;1.20;99.90;;;;;;5022838;28;20311;-74
2021/01/10 00:50:21;;;;;;;;;;;1.20;99.90;;;;;;5024163;28;20680;-74
2021/01/10 00:52:47;;;;;;;;;;;1.20;99.90;;;;;;5056337;28;19916;-74
2021/01/10 00:55:12;;;;;;;;;;;1.20;99.90;;;;;;5038001;28;19924;-74
2021/01/10 00:57:38;;;;;;;;;;;1.20;99.90;;;;;;5024504;28;19912;-74
2021/01/10 01:00:07;;;;;;;;;;;1.20;99.90;;;;;;5021463;28;19913;-74
2021/01/10 01:02:33;;;;;;;;;;;1.20;99.90;;;;;;5023097;28;20017;-74
2021/01/10 01:04:58;;;;;;;;;;;1.20;99.90;;;;;;5020581;28;19944;-74
2021/01/10 01:07:24;;;;;;;;;;;1.20;99.90;;;;;;5020898;28;19920;-74
2021/01/10 01:09:49;;;;;;;;;;;1.20;99.90;;;;;;5019955;28;19968;-74
2021/01/10 01:12:17;;;;;;;;;;;1.20;99.90;;;;;;5021756;28;19917;-73
2021/01/10 01:14:43;;;;;;;;;;;1.20;99.90;;;;;;5022156;28;19928;-74
2021/01/10 01:17:08;;;;;;;;;;;1.20;99.90;;;;;;5023159;28;19909;-73
2021/01/10 01:19:34;;;;;;;;;;;1.20;99.90;;;;;;5023093;28;19917;-74
2021/01/10 01:22:00;;;;;;;;;;;1.20;99.90;;;;;;5024901;28;19909;-74
2021/01/10 01:24:25;;;;;;;;;;;1.20;99.90;;;;;;5055869;28;19927;-74
2021/01/10 01:26:54;;;;;;;;;;;1.20;99.90;;;;;;5022149;28;19913;-74
2021/01/10 01:29:20;;;;;;;;;;;1.20;99.90;;;;;;5023642;28;20358;-74
2021/01/10 01:31:45;;;;;;;;;;;1.20;99.90;;;;;;5024439;28;19924;-74
2021/01/10 01:34:11;;;;;;;;;;;1.20;99.90;;;;;;5023621;28;20346;-74
2021/01/10 01:36:36;;;;;;;;;;;1.10;99.90;;;;;;5023783;28;20247;-74
2021/01/10 01:39:02;;;;;;;;;;;1.10;99.90;;;;;;5028448;28;20285;-75
2021/01/10 01:41:28;;;;;;;;;;;1.20;99.90;;;;;;5029002;28;19913;-74
2021/01/10 01:43:53;;;;;;;;;;;1.20;99.90;;;;;;5062485;28;20358;-74
2021/01/10 01:46:28;;;;;;;;;;;1.20;99.90;;;;;;5029900;28;19916;-74
2021/01/10 01:48:56;;;;;;;;;;;1.20;99.90;;;;;;5029492;28;19974;-74
2021/01/10 01:51:22;;;;;;;;;;;1.20;99.90;;;;;;5060455;28;20338;-73
2021/01/10 01:53:47;;;;;;;;;;;1.10;99.90;;;;;;5031035;28;19909;-74
2021/01/10 01:56:13;;;;;;;;;;;1.10;99.90;;;;;;5062284;28;20528;-74
2021/01/10 01:58:39;;;;;;;;;;;1.10;99.90;;;;;;5030688;28;19978;-74
2021/01/10 02:01:05;;;;;;;;;;;1.10;99.90;;;;;;5045029;28;19913;-74
2021/01/10 02:03:39;;;;;;;;;;;1.10;99.90;;;;;;5060939;28;20543;-74
2021/01/10 02:06:09;;;;;;;;;;;1.10;99.90;;;;;;5026441;28;19917;-74
2021/01/10 02:08:34;;;;;;;;;;;1.10;99.90;;;;;;5028687;28;20346;-74
2021/01/10 02:11:02;;;;;;;;;;;1.10;99.90;;;;;;5014863;28;19909;-74
2021/01/10 02:13:28;;;;;;;;;;;1.10;99.90;;;;;;5060475;28;19915;-74
2021/01/10 02:15:54;;;;;;;;;;;1.10;99.90;;;;;;5012500;28;20301;-74
2021/01/10 02:18:19;;;;;;;;;;;1.10;99.90;;;;;;5045149;28;19944;-74
2021/01/10 02:20:45;;;;;;;;;;;1.10;99.90;;;;;;5061659;28;19921;-74
2021/01/10 02:23:11;;;;;;;;;;;1.00;99.90;;;;;;5030408;28;19959;-74
2021/01/10 02:25:39;;;;;;;;;;;1.00;99.90;;;;;;5027448;28;20363;-74
2021/01/10 02:28:05;;;;;;;;;;;0.90;99.90;;;;;;5022698;28;19971;-73
2021/01/10 02:30:31;;;;;;;;;;;0.90;99.90;;;;;;5049311;28;20317;-73
2021/01/10 02:33:04;;;;;;;;;;;0.80;99.90;;;;;;5049648;28;21711;-74
2021/01/10 02:35:30;;;;;;;;;;;0.90;99.90;;;;;;5049719;28;19947;-73
2021/01/10 02:38:15;;;;;;;;;;;0.80;99.90;;;;;;5018110;28;19920;-74
2021/01/10 02:40:44;;;;;;;;;;;0.80;99.90;;;;;;5049959;28;20188;-73
2021/01/10 02:43:13;;;;;;;;;;;0.80;99.90;;;;;;5049089;28;19917;-74
2021/01/10 02:45:40;;;;;;;;;;;0.80;99.90;;;;;;5018561;28;20728;-74
2021/01/10 02:48:07;;;;;;;;;;;0.70;99.90;;;;;;5028493;28;19972;-74
2021/01/10 02:50:35;;;;;;;;;;;0.70;99.90;;;;;;5047977;28;19913;-74
2021/01/10 02:53:03;;;;;;;;;;;0.70;99.90;;;;;;5015908;28;19974;-74
2021/01/10 02:55:31;;;;;;;;;;;0.70;99.90;;;;;;5019645;28;19957;-73
2021/01/10 02:58:01;;;;;;;;;;;0.70;99.90;;;;;;5016773;28;19992;-74
2021/01/10 03:00:27;;;;;;;;;;;0.60;99.90;;;;;;5049448;28;20164;-73
2021/01/10 03:02:53;;;;;;;;;;;0.60;99.90;;;;;;5034183;28;19940;-73
2021/01/10 03:05:21;;;;;;;;;;;0.60;99.90;;;;;;5030789;28;19932;-74
2021/01/10 03:07:46;;;;;;;;;;;0.60;99.90;;;;;;5050293;28;19935;-74
2021/01/10 03:10:12;;;;;;;;;;;0.50;99.90;;;;;;5060423;28;20007;-74
2021/01/10 03:12:38;;;;;;;;;;;0.50;99.90;;;;;;5022883;28;19960;-74
2021/01/10 03:15:03;;;;;;;;;;;0.40;99.90;;;;;;5023834;28;19913;-74
2021/01/10 03:17:35;;;;;;;;;;;0.40;99.90;;;;;;5027509;28;19958;-74
2021/01/10 03:20:01;;;;;;;;;;;0.40;99.90;;;;;;5031730;28;19952;-73
2021/01/10 03:22:29;;;;;;;;;;;0.40;99.90;;;;;;5016377;28;20231;-73
2021/01/10 03:24:55;;;;;;;;;;;0.40;99.90;;;;;;5047506;28;20386;-73
2021/01/10 03:27:22;;;;;;;;;;;0.30;99.90;;;;;;5023118;28;19940;-73
2021/01/10 03:29:50;;;;;;;;;;;0.30;99.90;;;;;;5026155;28;19982;-74
2021/01/10 03:32:18;;;;;;;;;;;0.30;99.90;;;;;;5019144;28;19976;-73
2021/01/10 03:34:43;;;;;;;;;;;0.30;99.90;;;;;;5031526;28;19917;-73
2021/01/10 03:37:11;;;;;;;;;;;0.30;99.90;;;;;;5016964;28;19913;-73
2021/01/10 03:39:39;;;;;;;;;;;0.30;99.90;;;;;;5020803;28;19913;-73
2021/01/10 03:42:05;;;;;;;;;;;0.30;99.90;;;;;;5027937;28;19925;-73
2021/01/10 03:44:30;;;;;;;;;;;0.30;99.90;;;;;;5032170;28;20064;-73
2021/01/10 03:46:56;;;;;;;;;;;0.30;99.90;;;;;;5016935;28;19917;-74
2021/01/10 03:49:24;;;;;;;;;;;0.30;99.90;;;;;;5027146;28;19912;-74
2021/01/10 03:51:49;;;;;;;;;;;0.20;99.90;;;;;;5025588;28;19927;-73
2021/01/10 03:54:17;;;;;;;;;;;0.20;99.90;;;;;;5024541;28;19909;-74
2021/01/10 03:56:43;;;;;;;;;;;0.20;99.90;;;;;;5027124;28;21856;-73
2021/01/10 03:59:09;;;;;;;;;;;0.20;99.90;;;;;;5024976;28;19909;-73
2021/01/10 04:01:34;;;;;;;;;;;0.20;99.90;;;;;;5015871;28;20596;-73
2021/01/10 04:04:02;;;;;;;;;;;0.10;99.90;;;;;;5018216;28;20350;-73
2021/01/10 04:06:31;;;;;;;;;;;0.10;99.90;;;;;;5028348;28;20389;-73
2021/01/10 04:08:56;;;;;;;;;;;0.10;99.90;;;;;;5026525;28;19931;-75
2021/01/10 04:11:22;;;;;;;;;;;0.10;99.90;;;;;;5057836;28;19917;-75
2021/01/10 04:13:48;;;;;;;;;;;0.10;99.90;;;;;;4708654;28;10001558;-75
2021/01/10 04:16:13;;;;;;;;;;;0.10;99.90;;;;;;5030278;28;20055;-75
2021/01/10 04:18:39;;;;;;;;;;;0.10;99.90;;;;;;5025550;28;20004;-74
2021/01/10 04:21:07;;;;;;;;;;;0.00;99.90;;;;;;5025812;28;19917;-74
2021/01/10 04:23:35;;;;;;;;;;;0.00;99.90;;;;;;5026717;28;19921;-74
2021/01/10 04:26:01;;;;;;;;;;;0.00;99.90;;;;;;5056637;28;19944;-74
2021/01/10 04:28:29;;;;;;;;;;;0.00;99.90;;;;;;5027240;28;19979;-74
2021/01/10 04:30:55;;;;;;;;;;;-0.10;99.90;;;;;;5026885;28;19939;-74
2021/01/10 04:33:26;;;;;;;;;;;-0.20;99.90;;;;;;5042635;28;19913;-74
2021/01/10 04:35:51;;;;;;;;;;;-0.10;99.90;;;;;;5024388;28;20008;-74
2021/01/10 04:38:17;;;;;;;;;;;-0.10;99.90;;;;;;5025964;28;19999;-75
2021/01/10 04:40:42;;;;;;;;;;;-0.20;99.90;;;;;;5025479;28;19908;-74
2021/01/10 04:43:10;;;;;;;;;;;-0.20;99.90;;;;;;5024636;28;19967;-75
2021/01/10 04:45:36;;;;;;;;;;;-0.20;99.90;;;;;;5024898;28;19936;-75
2021/01/10 04:48:06;;;;;;;;;;;-0.20;99.90;;;;;;5025118;28;19917;-74
2021/01/10 04:50:34;;;;;;;;;;;-0.20;99.90;;;;;;5026135;28;19913;-74
2021/01/10 04:53:03;;;;;;;;;;;-0.10;99.90;;;;;;5024132;28;20365;-76
2021/01/10 04:55:31;;;;;;;;;;;-0.20;99.90;;;;;;5024781;28;19920;-75
2021/01/10 04:58:03;;;;;;;;;;;-0.10;99.90;;;;;;5026311;28;19917;-75
2021/01/10 05:00:29;;;;;;;;;;;-0.20;99.90;;;;;;5025524;28;19909;-75
2021/01/10 05:03:04;;;;;;;;;;;-0.20;99.90;;;;;;5024908;28;20392;-75
2021/01/10 05:05:33;;;;;;;;;;;-0.20;99.90;;;;;;5023348;28;19921;-75
2021/01/10 05:08:01;;;;;;;;;;;-0.20;99.90;;;;;;5023430;28;19909;-75
2021/01/10 05:10:31;;;;;;;;;;;-0.20;99.90;;;;;;5009079;28;19909;-74
2021/01/10 05:12:57;;;;;;;;;;;-0.20;99.90;;;;;;5056451;28;20000;-74
2021/01/10 05:15:22;;;;;;;;;;;-0.20;99.90;;;;;;5024889;28;20000;-74
2021/01/10 05:18:08;;;;;;;;;;;-0.10;99.90;;;;;;5026015;28;19909;-75
2021/01/10 05:20:36;;;;;;;;;;;-0.20;99.90;;;;;;5024760;28;19923;-75
2021/01/10 05:23:01;;;;;;;;;;;-0.20;99.90;;;;;;5057093;28;20373;-76
2021/01/10 05:25:27;;;;;;;;;;;-0.20;99.90;;;;;;5025531;28;19959;-75
2021/01/10 05:27:58;;;;;;;;;;;-0.10;99.90;;;;;;5023581;28;19927;-75
2021/01/10 05:30:28;;;;;;;;;;;-0.10;99.90;;;;;;5039506;28;19928;-74
2021/01/10 05:33:16;;;;;;;;;;;-0.20;99.90;;;;;;5023207;28;19919;-74
2021/01/10 05:35:53;;;;;;;;;;;-0.10;99.90;;;;;;5025334;28;20254;-74
2021/01/10 05:38:33;;;;;;;;;;;-0.10;99.90;;;;;;5015211;28;19913;-74
2021/01/10 05:40:59;;;;;;;;;;;-0.10;99.90;;;;;;5015196;28;19955;-75
2021/01/10 05:43:25;;;;;;;;;;;-0.10;99.90;;;;;;5016872;28;19917;-74
2021/01/10 05:45:50;;;;;;;;;;;-0.20;99.90;;;;;;5016002;28;20265;-75
2021/01/10 05:48:18;;;;;;;;;;;-0.20;99.90;;;;;;5015966;28;19917;-75
2021/01/10 05:50:44;;;;;;;;;;;-0.10;99.90;;;;;;5023365;28;19970;-74
2021/01/10 05:53:15;;;;;;;;;;;-0.10;99.90;;;;;;5019862;28;19963;-75
2021/01/10 05:56:10;;;;;;;;;;;-0.10;99.90;;;;;;5014016;28;19928;-74
2021/01/10 05:58:38;;;;;;;;;;;-0.10;99.90;;;;;;5022055;28;19949;-75
2021/01/10 06:01:13;;;;;;;;;;;-0.10;99.90;;;;;;5037933;28;20047;-74
2021/01/10 06:03:41;;;;;;;;;;;-0.10;99.90;;;;;;5023597;28;20366;-75
2021/01/10 06:06:09;;;;;;;;;;;0.00;99.90;;;;;;5025507;28;20445;-74
2021/01/10 06:08:36;;;;;;;;;;;-0.10;99.90;;;;;;5056998;28;19913;-75
2021/01/10 06:11:20;;;;;;;;;;;-0.10;99.90;;;;;;5024972;28;19986;-74
2021/01/10 06:14:02;;;;;;;;;;;-0.10;99.90;;;;;;5023836;28;19913;-75
2021/01/10 06:16:28;;;;;;;;;;;0.00;99.90;;;;;;5017842;28;19913;-75
2021/01/10 06:18:55;;;;;;;;;;;0.00;99.90;;;;;;5046319;28;19913;-74
2021/01/10 06:21:21;;;;;;;;;;;0.00;99.90;;;;;;5027518;28;19918;-74
2021/01/10 06:23:49;;;;;;;;;;;0.00;99.90;;;;;;5038814;28;19923;-75
2021/01/10 06:26:16;;;;;;;;;;;0.00;99.90;;;;;;5023149;28;19932;-75
2021/01/10 06:28:42;;;;;;;;;;;0.00;99.90;;;;;;5022296;28;20270;-74
2021/01/10 06:31:10;;;;;;;;;;;0.00;99.90;;;;;;5025191;28;19934;-75
2021/01/10 06:33:35;;;;;;;;;;;-0.10;99.90;;;;;;5060142;28;19960;-75
2021/01/10 06:36:05;;;;;;;;;;;0.00;99.90;;;;;;5059419;28;19960;-74
2021/01/10 06:38:37;;;;;;;;;;;0.00;99.90;;;;;;5026145;28;19914;-74
2021/01/10 06:41:09;;;;;;;;;;;0.00;99.90;;;;;;5015750;28;20354;-75
2021/01/10 06:43:34;;;;;;;;;;;0.00;99.90;;;;;;5016951;28;19967;-75
2021/01/10 06:46:02;;;;;;;;;;;0.00;99.90;;;;;;5031139;28;20011;-74
2021/01/10 06:48:28;;;;;;;;;;;0.00;99.90;;;;;;5018632;28;20423;-74
2021/01/10 06:50:53;;;;;;;;;;;0.00;99.90;;;;;;5032972;28;20011;-75
2021/01/10 06:53:19;;;;;;;;;;;0.10;99.90;;;;;;5034087;28;20278;-75
2021/01/10 06:55:44;;;;;;;;;;;0.10;99.90;;;;;;5048972;28;19917;-75
2021/01/10 06:58:12;;;;;;;;;;;0.10;99.90;;;;;;5017929;28;19989;-75
2021/01/10 07:00:56;;;;;;;;;;;0.10;99.90;;;;;;5018307;28;19924;-74
2021/01/10 07:03:22;;;;;;;;;;;0.10;99.90;;;;;;5026294;28;19959;-74
2021/01/10 07:06:06;;;;;;;;;;;0.20;99.90;;;;;;5026583;28;19964;-74
2021/01/10 07:08:32;;;;;;;;;;;0.10;99.90;;;;;;5027032;28;19913;-75
2021/01/10 07:11:16;;;;;;;;;;;0.20;99.90;;;;;;5050799;28;19912;-75
2021/01/10 07:13:42;;;;;;;;;;;0.20;99.90;;;;;;5030354;28;19928;-75
2021/01/10 07:16:17;;;;;;;;;;;0.20;99.90;;;;;;5019667;28;20718;-75
2021/01/10 07:19:15;;;;;;;;;;;0.20;99.90;;;;;;5026258;28;19936;-75
2021/01/10 07:21:44;;;;;;;;;;;0.20;99.90;;;;;;5010972;28;19913;-75
2021/01/10 07:24:12;;;;;;;;;;;0.20;99.90;;;;;;5027758;28;19967;-75
2021/01/10 07:26:43;;;;;;;;;;;0.20;99.90;;;;;;5027174;28;19948;-75
2021/01/10 07:29:29;;;;;;;;;;;0.20;99.90;;;;;;5026929;28;19972;-75
2021/01/10 07:31:57;;;;;;;;;;;0.20;99.90;;;;;;5026699;28;19967;-74
2021/01/10 07:34:26;;;;;;;;;;;0.20;99.90;;;;;;5023630;28;19997;-75
2021/01/10 07:36:52;;;;;;;;;;;0.30;99.90;;;;;;5016671;28;19924;-75
2021/01/10 07:39:18;;;;;;;;;;;0.30;99.90;;;;;;5016224;28;19913;-75
2021/01/10 07:41:46;;;;;;;;;;;0.30;99.90;;;;;;5016403;28;19909;-75
2021/01/10 07:44:12;;;;;;;;;;;0.30;99.90;;;;;;5017541;28;20089;-74
2021/01/10 07:46:50;;;;;;;;;;;0.30;99.90;;;;;;5029798;28;20354;-75
2021/01/10 07:49:18;;;;;;;;;;;0.30;99.90;;;;;;5026806;28;19947;-74
2021/01/10 07:51:44;;;;;;;;;;;0.30;99.90;;;;;;5027977;28;19909;-75
2021/01/10 07:54:10;;;;;;;;;;;0.30;99.90;;;;;;5024902;28;19908;-75
2021/01/10 07:56:35;;;;;;;;;;;0.30;99.90;;;;;;5033664;28;19913;-75
2021/01/10 07:59:15;;;;;;;;;;;0.30;99.90;;;;;;5015360;28;19917;-75
2021/01/10 08:01:52;;;;;;;;;;;0.30;99.90;;;;;;5017236;28;19984;-75
2021/01/10 08:04:36;;;;;;;;;;;0.30;99.90;;;;;;5026438;28;19920;-75
2021/01/10 08:07:03;;;;;;;;;;;0.30;99.90;;;;;;5026813;28;19932;-75
2021/01/10 08:09:33;;;;;;;;;;;0.30;99.90;;;;;;5017762;28;19924;-75
2021/01/10 08:12:04;;;;;;;;;;;0.30;99.90;;;;;;5016124;28;19917;-75
2021/01/10 08:14:29;;;;;;;;;;;0.30;99.90;;;;;;5015322;28;20307;-75
2021/01/10 08:16:55;;;;;;;;;;;0.40;99.90;;;;;;5015201;28;19927;-75
2021/01/10 08:19:20;;;;;;;;;;;0.40;99.90;;;;;;5016249;28;20000;-75
2021/01/10 08:21:48;;;;;;;;;;;0.30;99.90;;;;;;5046919;28;20520;-74
2021/01/10 08:24:17;;;;;;;;;;;0.40;99.90;;;;;;5046576;28;19959;-75
2021/01/10 08:26:43;;;;;;;;;;;0.40;99.90;;;;;;5015268;28;20022;-75
2021/01/10 08:29:11;;;;;;;;;;;0.40;99.90;;;;;;5050927;28;19948;-75
2021/01/10 08:31:41;;;;;;;;;;;0.50;99.90;;;;;;5024262;28;20034;-76
2021/01/10 08:34:07;;;;;;;;;;;0.50;99.90;;;;;;5039974;28;19972;-75
2021/01/10 08:36:34;;;;;;;;;;;0.50;99.90;;;;;;5024696;28;19923;-75
2021/01/10 08:39:06;;;;;;;;;;;0.50;99.90;;;;;;5025319;28;19972;-75
2021/01/10 08:41:37;;;;;;;;;;;0.50;99.90;;;;;;5037780;28;19913;-75
2021/01/10 08:44:12;;;;;;;;;;;0.50;99.90;;;;;;5056198;28;20330;-75
2021/01/10 08:46:38;;;;;;;;;;;0.50;99.90;;;;;;5019474;28;20513;-75
2021/01/10 08:49:06;;;;;;;;;;;0.50;99.90;;;;;;5015690;28;19913;-76
2021/01/10 08:51:38;;;;;;;;;;;0.60;99.90;;;;;;5028946;28;20380;-75
2021/01/10 08:54:10;;;;;;;;;;;0.60;99.90;;;;;;5014184;28;19939;-75
2021/01/10 08:56:35;;;;;;;;;;;0.60;99.90;;;;;;5047804;28;19924;-75
2021/01/10 08:59:03;;;;;;;;;;;0.60;99.90;;;;;;5016386;28;19916;-75
2021/01/10 09:01:29;;;;;;;;;;;0.70;99.90;;;;;;5022123;28;19914;-75
2021/01/10 09:03:57;;;;;;;;;;;0.70;99.90;;;;;;5037501;28;20043;-76
2021/01/10 09:06:29;;;;;;;;;;;0.70;99.90;;;;;;5024723;28;19913;-75
2021/01/10 09:08:59;;;;;;;;;;;0.70;99.90;;;;;;5019095;28;19945;-75
2021/01/10 09:11:28;;;;;;;;;;;0.70;99.90;;;;;;5047179;28;19983;-75
2021/01/10 09:13:53;;;;;;;;;;;0.70;99.90;;;;;;5014816;28;19917;-76
2021/01/10 09:16:19;;;;;;;;;;;0.80;99.90;;;;;;5015418;28;20365;-75
2021/01/10 09:18:47;;;;;;;;;;;0.80;99.90;;;;;;5024743;28;19909;-75
2021/01/10 09:21:15;;;;;;;;;;;0.80;99.90;;;;;;5026053;28;19960;-75
2021/01/10 09:23:54;;;;;;;;;;;0.80;99.90;;;;;;5025218;28;19913;-75
2021/01/10 09:26:31;;;;;;;;;;;0.80;99.90;;;;;;5007336;28;19913;-75
2021/01/10 09:29:02;;;;;;;;;;;0.90;99.90;;;;;;5022458;28;19917;-75
2021/01/10 09:31:43;;;;;;;;;;;0.90;99.90;;;;;;5022787;28;20065;-75
2021/01/10 09:34:11;;;;;;;;;;;0.90;99.90;;;;;;5021669;28;20462;-76
2021/01/10 09:36:37;;;;;;;;;;;0.90;99.90;;;;;;5022848;28;20016;-75
2021/01/10 09:39:04;;;;;;;;;;;0.90;99.90;;;;;;5035416;28;20023;-76
2021/01/10 09:41:39;;;;;;;;;;;1.00;99.90;;;;;;5022321;28;19909;-76
2021/01/10 09:44:04;;;;;;;;;;;1.00;99.90;;;;;;5037295;28;19920;-76
2021/01/10 09:46:36;;;;;;;;;;;1.00;99.90;;;;;;5023276;28;19917;-76
2021/01/10 09:49:07;;;;;;;;;;;1.00;99.90;;;;;;5022625;28;19913;-79
2021/01/10 09:51:41;;;;;;;;;;;1.10;99.90;;;;;;5024417;28;19925;-76
2021/01/10 09:54:15;;;;;;;;;;;1.10;99.90;;;;;;5025104;28;19979;-76
2021/01/10 09:56:40;;;;;;;;;;;1.10;99.90;;;;;;5024703;28;20224;-76
2021/01/10 09:59:25;;;;;;;;;;;1.10;99.90;;;;;;5029040;28;19951;-72
2021/01/10 10:01:53;;;;;;;;;;;1.20;99.90;;;;;;5027625;28;19917;-76
2021/01/10 10:04:28;;;;;;;;;;;1.20;99.90;;;;;;5026982;28;19928;-76
2021/01/10 10:06:56;;;;;;;;;;;1.20;99.90;;;;;;5027937;28;20067;-76
2021/01/10 10:09:24;;;;;;;;;;;1.20;99.90;;;;;;5060279;28;19940;-74
2021/01/10 10:11:50;;;;;;;;;;;1.30;99.90;;;;;;5041090;28;19910;-75
2021/01/10 10:14:15;;;;;;;;;;;1.30;99.90;;;;;;5026549;28;19918;-75
2021/01/10 10:16:46;;;;;;;;;;;1.30;99.90;;;;;;4678092;28;10000007;-78
2021/01/10 10:19:11;;;;;;;;;;;1.30;99.90;;;;;;5023735;28;19924;-77
2021/01/10 10:21:47;;;;;;;;;;;1.30;99.90;;;;;;5025461;28;19959;-77
2021/01/10 10:24:16;;;;;;;;;;;1.30;99.90;;;;;;5024746;28;19913;-77
2021/01/10 10:26:44;;;;;;;;;;;1.40;99.90;;;;;;5026961;28;19927;-74
2021/01/10 10:29:11;;;;;;;;;;;1.40;99.90;;;;;;5025955;28;19927;-73
2021/01/10 10:31:37;;;;;;;;;;;1.40;99.90;;;;;;5021777;28;20018;-76
2021/01/10 10:34:03;;;;;;;;;;;1.40;99.90;;;;;;5025702;28;19941;-75
2021/01/10 10:36:28;;;;;;;;;;;1.50;99.90;;;;;;5005910;28;19932;-76
2021/01/10 10:38:56;;;;;;;;;;;1.50;99.90;;;;;;5017653;28;20023;-76
2021/01/10 10:41:23;;;;;;;;;;;1.60;99.90;;;;;;5015681;28;19959;-76
2021/01/10 10:43:51;;;;;;;;;;;1.70;99.90;;;;;;5017557;28;19997;-76
2021/01/10 10:46:17;;;;;;;;;;;1.70;99.90;;;;;;5016540;28;20079;-76
2021/01/10 10:48:42;;;;;;;;;;;1.70;99.90;;;;;;5017948;28;19972;-76
2021/01/10 10:51:08;;;;;;;;;;;1.80;99.90;;;;;;5014568;28;20461;-75
2021/01/10 10:53:33;;;;;;;;;;;1.90;99.90;;;;;;5016622;28;19933;-77
2021/01/10 10:55:59;;;;;;;;;;;1.90;99.90;;;;;;5016862;28;20353;-77
2021/01/10 10:58:27;;;;;;;;;;;1.90;99.90;;;;;;5018542;28;20349;-77
2021/01/10 11:00:53;;;;;;;;;;;1.90;99.90;;;;;;5014729;28;19975;-76
2021/01/10 11:03:21;;;;;;;;;;;2.00;99.90;;;;;;5029803;28;19917;-77
2021/01/10 11:05:49;;;;;;;;;;;2.10;99.90;;;;;;5018050;28;19939;-77
2021/01/10 11:08:15;;;;;;;;;;;2.20;99.90;;;;;;5029444;28;19913;-76
2021/01/10 11:10:40;;;;;;;;;;;2.20;99.90;;;;;;5023025;28;20405;-76
2021/01/10 11:13:08;;;;;;;;;;;2.20;99.90;;;;;;5024458;28;19919;-78
2021/01/10 11:15:36;;;;;;;;;;;2.20;99.90;;;;;;5055616;28;20021;-78
2021/01/10 11:18:04;;;;;;;;;;;2.30;99.90;;;;;;5020109;28;19956;-77
2021/01/10 11:20:32;;;;;;;;;;;2.30;99.90;;;;;;5055491;28;19970;-76
2021/01/10 11:22:58;;;;;;;;;;;2.30;99.90;;;;;;5024749;28;19916;-77
2021/01/10 11:25:25;;;;;;;;;;;2.40;99.90;;;;;;5023182;28;20177;-76
2021/01/10 11:27:51;;;;;;;;;;;2.40;99.90;;;;;;5021554;28;20311;-76
2021/01/10 11:30:17;;;;;;;;;;;2.50;99.90;;;;;;5021991;28;19964;-80
2021/01/10 11:32:42;;;;;;;;;;;2.50;99.90;;;;;;5025863;28;19914;-80
2021/01/10 11:35:08;;;;;;;;;;;2.50;99.90;;;;;;4677285;28;9999873;-76
2021/01/10 11:37:34;;;;;;;;;;;2.50;99.90;;;;;;5025391;28;19931;-76
2021/01/10 11:40:01;;;;;;;;;;;2.50;99.90;;;;;;5023841;28;19971;-77
2021/01/10 11:42:28;;;;;;;;;;;2.40;99.90;;;;;;5025014;28;19913;-70
2021/01/10 11:44:55;;;;;;;;;;;2.40;99.90;;;;;;5023654;28;19928;-80
2021/01/10 11:47:25;;;;;;;;;;;2.40;99.90;;;;;;5055599;28;19912;-77
2021/01/10 11:49:53;;;;;;;;;;;2.40;99.90;;;;;;5025415;28;19909;-78
2021/01/10 11:52:21;;;;;;;;;;;2.40;99.90;;;;;;5024834;28;19912;-78
2021/01/10 11:54:47;;;;;;;;;;;2.30;99.90;;;;;;5022870;28;19913;-78
2021/01/10 11:57:15;;;;;;;;;;;2.30;99.90;;;;;;5024061;28;20243;-78
2021/01/10 11:59:40;;;;;;;;;;;2.30;99.90;;;;;;5025196;28;20822;-78
2021/01/10 12:02:06;;;;;;;;;;;2.20;99.90;;;;;;5024254;28;20003;-77
2021/01/10 12:04:32;;;;;;;;;;;2.20;99.90;;;;;;5022892;28;19979;-77
2021/01/10 12:06:58;;;;;;;;;;;2.20;99.90;;;;;;5023512;28;19909;-76
2021/01/10 12:09:26;;;;;;;;;;;2.20;99.90;;;;;;5038592;28;20292;-78
2021/01/10 12:11:54;;;;;;;;;;;2.20;99.90;;;;;;5025833;28;19921;-78
2021/01/10 12:14:22;;;;;;;;;;;2.10;99.90;;;;;;4675018;28;9999972;-75
2021/01/10 12:16:50;;;;;;;;;;;2.10;99.90;;;;;;5023528;28;20024;-78
2021/01/10 12:19:16;;;;;;;;;;;2.00;99.90;;;;;;5021468;28;19927;-74
2021/01/10 12:21:44;;;;;;;;;;;2.00;99.90;;;;;;5019224;28;20602;-75
2021/01/10 12:24:09;;;;;;;;;;;2.00;99.90;;;;;;5020490;28;19968;-75
2021/01/10 12:26:37;;;;;;;;;;;2.00;99.90;;;;;;5019518;28;20003;-76
2021/01/10 12:29:05;;;;;;;;;;;2.00;99.90;;;;;;5020754;28;19979;-74
2021/01/10 12:31:33;;;;;;;;;;;2.00;99.90;;;;;;5023806;28;19936;-74
2021/01/10 12:33:58;;;;;;;;;;;2.00;99.90;;;;;;5022322;28;19924;-74
2021/01/10 12:36:26;;;;;;;;;;;2.00;99.90;;;;;;5021761;28;20342;-74
2021/01/10 12:38:52;;;;;;;;;;;2.00;99.90;;;;;;5023019;28;19917;-73
2021/01/10 12:41:20;;;;;;;;;;;2.00;99.90;;;;;;5021811;28;19955;-74
2021/01/10 12:43:45;;;;;;;;;;;2.00;99.90;;;;;;5024170;28;19917;-74
2021/01/10 12:46:11;;;;;;;;;;;2.00;99.90;;;;;;5022489;28;19928;-74
2021/01/10 12:48:38;;;;;;;;;;;1.90;99.70;;;;;;5021548;28;19973;-74
2021/01/10 12:51:04;;;;;;;;;;;2.00;99.90;;;;;;5021767;28;19909;-74
2021/01/10 12:53:30;;;;;;;;;;;1.90;99.90;;;;;;5022131;28;19920;-74
2021/01/10 12:55:55;;;;;;;;;;;2.00;99.90;;;;;;5021228;28;20325;-74
2021/01/10 12:58:21;;;;;;;;;;;1.90;99.90;;;;;;5021080;28;19931;-74
2021/01/10 13:00:49;;;;;;;;;;;1.90;99.90;;;;;;5020038;28;19909;-76
2021/01/10 13:03:14;;;;;;;;;;;1.90;99.90;;;;;;5018487;28;20500;-73
2021/01/10 13:05:44;;;;;;;;;;;2.00;99.90;;;;;;5020953;28;19925;-74
2021/01/10 13:08:09;;;;;;;;;;;2.00;99.90;;;;;;5022047;28;19975;-74
2021/01/10 13:10:35;;;;;;;;;;;1.90;99.90;;;;;;5019284;28;20334;-74
2021/01/10 13:13:02;;;;;;;;;;;1.90;99.90;;;;;;5021590;28;19920;-74
2021/01/10 13:15:28;;;;;;;;;;;1.90;99.90;;;;;;5035939;28;19923;-74
2021/01/10 13:18:29;;;;;;;10.07;6.43;;;1.90;99.90;;;;;;5127317;27;22375;-74
2021/01/10 13:20:54;;;;;;;12.38;7.53;;;2.00;99.90;;;;;;5105462;28;20106;-74
2021/01/10 13:23:20;;;;;;;10.98;6.93;;;2.00;99.90;;;;;;5099282;28;20368;-74
2021/01/10 13:25:48;;;;;;;11.48;7.35;;;2.00;99.90;;;;;;5106345;28;20028;-74
2021/01/10 13:28:15;;;;;;;10.75;7.43;;;2.00;99.90;;;;;;5092781;28;20068;-74
2021/01/10 13:30:45;;;;;;;11.88;7.20;;;2.00;99.90;;;;;;5101143;28;20027;-74
2021/01/10 13:33:10;;;;;;;10.88;6.63;;;2.00;99.90;;;;;;5101732;28;20690;-74
2021/01/10 13:35:37;;;;;;;9.38;5.97;;;2.00;99.90;;;;;;5083471;28;20027;-74
2021/01/10 13:38:04;;;;;;;9.38;5.97;;;2.00;99.90;;;;;;5097651;28;20088;-74
2021/01/10 13:40:30;;;;;;;8.63;5.60;;;2.00;99.90;;;;;;5100029;28;20464;-75
2021/01/10 13:42:56;;;;;;;8.80;5.72;;;1.90;99.90;;;;;;5102995;28;20039;-75
2021/01/10 13:45:24;;;;;;;10.20;5.82;;;1.90;99.90;;;;;;5103406;28;20028;-75
2021/01/10 13:47:52;;;;;;;10.63;5.90;;;1.90;99.90;;;;;;5087313;28;20058;-75
2021/01/10 13:50:17;;;;;;;8.73;5.85;;;1.90;99.90;;;;;;5105064;28;20027;-75
2021/01/10 13:52:43;;;;;;;8.23;5.22;;;1.90;99.90;;;;;;5101768;28;20092;-75
2021/01/10 13:55:11;;;;;;;8.50;5.47;;;1.90;99.90;;;;;;5098863;28;20122;-75
2021/01/10 13:57:37;;;;;;;10.15;5.85;;;1.80;99.90;;;;;;5099897;28;20032;-75
2021/01/10 14:00:11;;;;;;;8.90;5.75;;;1.90;99.90;;;;;;5100409;28;20036;-74
2021/01/10 14:02:37;;;;;;;9.52;6.07;;;1.80;99.90;;;;;;5098059;28;20032;-75
2021/01/10 14:05:06;;;;;;;10.82;5.75;;;1.80;99.90;;;;;;5103809;28;20032;-75
2021/01/10 14:07:31;;;;;;;10.73;5.80;;;1.80;99.90;;;;;;5099104;28;20032;-74
2021/01/10 14:09:57;;;;;;;8.32;5.38;;;1.70;99.90;;;;;;5098402;28;20479;-74
2021/01/10 14:12:26;;;;;;;6.38;4.18;;;1.70;99.90;;;;;;5097954;28;20032;-75
2021/01/10 14:14:52;;;;;;;8.68;4.97;;;1.70;99.90;;;;;;5098638;28;20427;-74
2021/01/10 14:17:19;;;;;;;8.27;5.45;;;1.70;99.90;;;;;;5091661;28;20044;-74
2021/01/10 14:19:45;;;;;;;6.95;4.55;;;1.70;99.90;;;;;;5102399;28;20120;-74
2021/01/10 14:22:13;;;;;;;7.70;4.95;;;1.60;99.90;;;;;;5102260;28;20077;-73
2021/01/10 14:24:39;;;;;;;6.95;4.53;;;1.70;99.90;;;;;;5102661;28;21022;-75